createdAt,value
2023-02-12T00:01:38.472Z,4.83
2023-02-12T00:04:05.082Z,4.84
2023-02-12T00:06:31.728Z,4.82
2023-02-12T00:08:58.705Z,4.79
2023-02-12T00:11:27.372Z,4.73
2023-02-12T00:13:54.694Z,4.69
2023-02-12T00:16:23.842Z,4.67
2023-02-12T00:18:53.014Z,4.67
2023-02-12T00:21:19.649Z,4.67
2023-02-12T00:23:46.188Z,4.69
2023-02-12T00:26:17.926Z,4.67
2023-02-12T00:28:44.595Z,4.66
2023-02-12T00:31:14.604Z,4.66
2023-02-12T00:33:41.827Z,4.64
2023-02-12T00:36:09.661Z,4.61
2023-02-12T00:38:36.453Z,4.56
2023-02-12T00:41:03.122Z,4.55
2023-02-12T00:43:29.668Z,4.55
2023-02-12T00:45:56.581Z,4.52
2023-02-12T00:48:23.343Z,4.52
2023-02-12T00:50:50.045Z,4.51
2023-02-12T00:53:16.726Z,4.50
2023-02-12T00:55:44.040Z,4.48
2023-02-12T00:58:10.904Z,4.46
2023-02-12T01:00:37.758Z,4.48
2023-02-12T01:03:05.556Z,4.46
2023-02-12T01:05:32.380Z,4.43
2023-02-12T01:07:58.941Z,4.38
2023-02-12T01:10:25.865Z,4.35
2023-02-12T01:12:52.479Z,4.35
2023-02-12T01:15:19.170Z,4.34
2023-02-12T01:17:45.842Z,4.34
2023-02-12T01:20:19.941Z,4.36
2023-02-12T01:22:46.886Z,4.40
2023-02-12T01:25:14.154Z,4.39
2023-02-12T01:27:40.785Z,4.37
2023-02-12T01:30:11.219Z,4.37
2023-02-12T01:32:38.295Z,4.38
2023-02-12T01:35:05.524Z,4.38
2023-02-12T01:37:35.465Z,4.40
2023-02-12T01:40:02.036Z,4.42
2023-02-12T01:42:28.564Z,4.43
2023-02-12T01:45:13.527Z,4.43
2023-02-12T01:47:44.760Z,4.41
2023-02-12T01:50:14.864Z,4.43
2023-02-12T01:52:44.416Z,4.43
2023-02-12T01:55:11.651Z,4.42
2023-02-12T01:57:41.418Z,4.40
2023-02-12T02:00:11.455Z,4.41
2023-02-12T02:02:39.329Z,4.38
2023-02-12T02:05:06.912Z,4.38
2023-02-12T02:07:33.821Z,4.37
2023-02-12T02:10:00.545Z,4.34
2023-02-12T02:12:46.166Z,4.30
2023-02-12T02:15:12.781Z,4.27
2023-02-12T02:18:00.429Z,4.26
2023-02-12T02:20:47.972Z,4.23
2023-02-12T02:23:23.709Z,4.19
2023-02-12T02:26:29.133Z,4.17
2023-02-12T02:29:17.193Z,4.19
2023-02-12T02:31:46.572Z,4.22
2023-02-12T02:34:28.153Z,4.24
2023-02-12T02:37:13.324Z,4.24
2023-02-12T02:39:53.937Z,4.23
2023-02-12T02:42:43.385Z,4.22
2023-02-12T02:45:16.974Z,4.19
2023-02-12T02:47:47.662Z,4.16
2023-02-12T02:50:37.292Z,4.14
2023-02-12T02:53:07.077Z,4.11
2023-02-12T02:55:38.928Z,4.10
2023-02-12T02:58:22.238Z,4.12
2023-02-12T03:01:01.713Z,4.11
2023-02-12T03:03:46.700Z,4.07
2023-02-12T03:06:28.042Z,4.06
2023-02-12T03:08:58.668Z,4.05
2023-02-12T03:11:30.675Z,4.03
2023-02-12T03:14:19.219Z,4.03
2023-02-12T03:16:54.476Z,4.05
2023-02-12T03:19:24.142Z,4.03
2023-02-12T03:21:56.345Z,4.00
2023-02-12T03:24:36.220Z,3.97
2023-02-12T03:27:05.214Z,3.94
2023-02-12T03:29:32.183Z,3.92
2023-02-12T03:32:01.090Z,3.90
2023-02-12T03:34:39.832Z,3.90
2023-02-12T03:37:14.289Z,3.88
2023-02-12T03:40:03.402Z,3.89
2023-02-12T03:42:42.162Z,3.93
2023-02-12T03:45:19.014Z,3.93
2023-02-12T03:47:49.102Z,3.92
2023-02-12T03:51:20.065Z,3.93
2023-02-12T03:53:47.262Z,3.94
2023-02-12T03:56:20.731Z,3.91
2023-02-12T03:58:47.280Z,3.89
2023-02-12T04:01:14.448Z,3.92
2023-02-12T04:03:41.854Z,3.92
2023-02-12T04:06:29.020Z,3.90
2023-02-12T04:08:58.048Z,3.86
2023-02-12T04:11:45.710Z,3.84
2023-02-12T04:14:25.380Z,3.85
2023-02-12T04:17:06.326Z,3.85
2023-02-12T04:19:58.726Z,3.86
2023-02-12T04:22:41.781Z,3.85
2023-02-12T04:25:08.314Z,3.86
2023-02-12T04:27:44.252Z,3.88
2023-02-12T04:30:34.898Z,3.88
2023-02-12T04:33:06.857Z,3.86
2023-02-12T04:35:56.623Z,3.88
2023-02-12T04:38:27.510Z,3.86
2023-02-12T04:40:54.190Z,3.86
2023-02-12T04:43:31.392Z,3.88
2023-02-12T04:45:58.530Z,3.86
2023-02-12T04:48:25.245Z,3.86
2023-02-12T04:50:51.958Z,3.87
2023-02-12T04:53:19.033Z,3.88
2023-02-12T04:55:45.906Z,3.91
2023-02-12T04:58:12.641Z,3.89
2023-02-12T05:00:39.645Z,3.86
2023-02-12T05:03:06.209Z,3.86
2023-02-12T05:05:33.039Z,3.86
2023-02-12T05:07:59.632Z,3.84
2023-02-12T05:10:26.298Z,3.80
2023-02-12T05:12:53.949Z,3.78
2023-02-12T05:15:20.777Z,3.74
2023-02-12T05:17:47.571Z,3.73
2023-02-12T05:20:14.419Z,3.74
2023-02-12T05:22:41.676Z,3.74
2023-02-12T05:25:08.297Z,3.74
2023-02-12T05:27:34.889Z,3.71
2023-02-12T05:30:02.524Z,3.72
2023-02-12T05:32:29.036Z,3.70
2023-02-12T05:34:55.666Z,3.67
2023-02-12T05:37:22.239Z,3.65
2023-02-12T05:39:51.856Z,3.63
2023-02-12T05:42:18.356Z,3.62
2023-02-12T05:44:44.945Z,3.59
2023-02-12T05:47:11.553Z,3.58
2023-02-12T05:49:38.158Z,3.57
2023-02-12T05:52:04.955Z,3.60
2023-02-12T05:54:31.606Z,3.62
2023-02-12T05:56:58.116Z,3.64
2023-02-12T05:59:24.736Z,3.66
2023-02-12T06:01:52.454Z,3.66
2023-02-12T06:04:23.674Z,3.66
2023-02-12T06:06:51.471Z,3.67
2023-02-12T06:09:18.142Z,3.68
2023-02-12T06:11:44.879Z,3.68
2023-02-12T06:14:14.542Z,3.67
2023-02-12T06:16:41.306Z,3.69
2023-02-12T06:19:07.945Z,3.67
2023-02-12T06:21:34.973Z,3.64
2023-02-12T06:24:01.802Z,3.65
2023-02-12T06:26:28.520Z,3.65
2023-02-12T06:28:55.363Z,3.65
2023-02-12T06:31:29.558Z,3.69
2023-02-12T06:33:58.362Z,3.71
2023-02-12T06:36:25.041Z,3.71
2023-02-12T06:38:52.189Z,3.71
2023-02-12T06:41:19.132Z,3.74
2023-02-12T06:43:45.713Z,3.74
2023-02-12T06:46:12.718Z,3.74
2023-02-12T06:48:39.796Z,3.72
2023-02-12T06:51:16.050Z,3.72
2023-02-12T06:53:43.576Z,3.75
2023-02-12T06:56:13.096Z,3.78
2023-02-12T06:58:43.427Z,3.79
2023-02-12T07:01:13.322Z,3.81
2023-02-12T07:03:41.519Z,3.84
2023-02-12T07:06:08.732Z,3.86
2023-02-12T07:08:35.832Z,3.88
2023-02-12T07:11:02.853Z,3.93
2023-02-12T07:13:29.574Z,3.99
2023-02-12T07:15:56.319Z,4.05
2023-02-12T07:18:23.096Z,4.09
2023-02-12T07:20:49.693Z,4.13
2023-02-12T07:23:16.359Z,4.16
2023-02-12T07:25:42.911Z,4.20
2023-02-12T07:28:09.534Z,4.23
2023-02-12T07:30:36.100Z,4.27
2023-02-12T07:33:02.603Z,4.33
2023-02-12T07:35:29.209Z,4.40
2023-02-12T07:37:55.746Z,4.45
2023-02-12T07:40:22.253Z,4.42
2023-02-12T07:42:55.179Z,4.38
2023-02-12T07:45:21.827Z,4.33
2023-02-12T07:47:48.457Z,4.37
2023-02-12T07:50:14.984Z,4.45
2023-02-12T07:52:41.560Z,4.52
2023-02-12T07:55:08.633Z,4.56
2023-02-12T07:57:35.888Z,4.63
2023-02-12T08:00:03.800Z,4.70
2023-02-12T08:02:30.365Z,4.79
2023-02-12T08:04:57.850Z,4.86
2023-02-12T08:07:24.758Z,4.98
2023-02-12T08:09:51.726Z,5.13
2023-02-12T08:12:18.478Z,5.32
2023-02-12T08:14:45.229Z,5.51
2023-02-12T08:17:12.050Z,5.66
2023-02-12T08:19:38.591Z,5.78
2023-02-12T08:22:06.566Z,5.87
2023-02-12T08:24:33.697Z,5.97
2023-02-12T08:27:00.215Z,6.07
2023-02-12T08:29:29.284Z,6.19
2023-02-12T08:32:03.874Z,6.29
2023-02-12T08:34:34.369Z,6.41
2023-02-12T08:37:01.327Z,6.50
2023-02-12T08:39:30.752Z,6.60
2023-02-12T08:41:58.795Z,6.73
2023-02-12T08:44:25.819Z,6.84
2023-02-12T08:46:53.362Z,6.96
2023-02-12T08:49:22.173Z,7.08
2023-02-12T08:51:51.547Z,7.20
2023-02-12T08:54:21.305Z,7.33
2023-02-12T08:56:48.075Z,7.47
2023-02-12T08:59:15.606Z,7.58
2023-02-12T09:01:43.338Z,7.74
2023-02-12T09:04:19.470Z,7.89
2023-02-12T09:06:46.984Z,8.03
2023-02-12T09:09:13.813Z,8.17
2023-02-12T09:11:40.804Z,8.31
2023-02-12T09:14:09.314Z,8.45
2023-02-12T09:16:36.994Z,8.61
2023-02-12T09:19:04.457Z,8.77
2023-02-12T09:21:31.061Z,8.92
2023-02-12T09:23:57.670Z,9.08
2023-02-12T09:26:28.488Z,9.22
2023-02-12T09:28:55.427Z,9.39
2023-02-12T09:31:26.639Z,9.53
2023-02-12T09:33:58.340Z,9.66
2023-02-12T09:36:25.531Z,9.79
2023-02-12T09:38:53.986Z,9.92
2023-02-12T09:41:20.505Z,10.14
2023-02-12T09:43:55.888Z,10.21
2023-02-12T09:46:33.787Z,10.24
2023-02-12T09:49:03.589Z,10.35
2023-02-12T09:51:31.443Z,10.47
2023-02-12T09:54:15.617Z,10.56
2023-02-12T09:56:45.702Z,10.63
2023-02-12T09:59:14.865Z,10.65
2023-02-12T10:01:41.433Z,10.68
2023-02-12T10:04:08.075Z,10.69
2023-02-12T10:06:45.973Z,10.68
2023-02-12T10:09:27.780Z,10.68
2023-02-12T10:12:06.483Z,10.69
2023-02-12T10:14:48.728Z,10.70
2023-02-12T10:17:15.160Z,10.70
2023-02-12T10:19:54.099Z,10.75
2023-02-12T10:22:58.476Z,10.83
2023-02-12T10:25:43.791Z,10.86
2023-02-12T10:28:17.991Z,10.92
2023-02-12T10:30:49.984Z,10.98
2023-02-12T10:33:17.779Z,11.03
2023-02-12T10:35:48.544Z,11.09
2023-02-12T10:38:21.877Z,11.16
2023-02-12T10:40:50.386Z,11.22
2023-02-12T10:43:17.407Z,11.27
2023-02-12T10:45:44.878Z,11.34
2023-02-12T10:48:14.262Z,11.40
2023-02-12T10:51:07.973Z,11.45
2023-02-12T10:53:40.306Z,11.48
2023-02-12T10:56:12.957Z,11.51
2023-02-12T10:58:59.367Z,11.55
2023-02-12T11:01:34.491Z,11.60
2023-02-12T11:04:20.515Z,11.64
2023-02-12T11:07:05.861Z,11.67
2023-02-12T11:09:53.916Z,11.72
2023-02-12T11:12:29.971Z,11.76
2023-02-12T11:15:20.800Z,11.81
2023-02-12T11:18:00.360Z,11.84
2023-02-12T11:20:38.968Z,11.88
2023-02-12T11:23:09.952Z,11.89
2023-02-12T11:25:38.172Z,11.93
2023-02-12T11:28:19.413Z,11.98
2023-02-12T11:30:53.599Z,11.83
2023-02-12T11:33:27.225Z,11.63
2023-02-12T11:36:00.140Z,11.47
2023-02-12T11:38:51.937Z,11.40
2023-02-12T11:41:34.692Z,11.37
2023-02-12T11:44:02.582Z,11.35
2023-02-12T11:46:29.258Z,11.38
2023-02-12T11:48:56.849Z,11.42
2023-02-12T11:51:29.488Z,11.46
2023-02-12T11:53:58.921Z,11.50
2023-02-12T11:56:25.571Z,11.52
2023-02-12T11:58:52.690Z,11.54
2023-02-12T12:01:29.798Z,11.54
2023-02-12T12:04:16.559Z,11.55
2023-02-12T12:06:58.373Z,11.57
2023-02-12T12:09:48.621Z,11.61
2023-02-12T12:12:43.149Z,11.75
2023-02-12T12:15:37.857Z,11.87
2023-02-12T12:18:32.698Z,11.98
2023-02-12T12:21:27.972Z,12.08
2023-02-12T12:24:20.635Z,12.15
2023-02-12T12:26:51.242Z,12.20
2023-02-12T12:29:24.805Z,12.24
2023-02-12T12:31:57.064Z,12.27
2023-02-12T12:34:25.045Z,12.29
2023-02-12T12:37:03.917Z,12.32
2023-02-12T12:39:41.350Z,12.36
2023-02-12T12:42:07.899Z,12.36
2023-02-12T12:44:58.582Z,12.38
2023-02-12T12:47:52.801Z,12.39
2023-02-12T12:50:28.555Z,12.39
2023-02-12T12:53:16.991Z,12.39
2023-02-12T12:56:08.004Z,12.41
2023-02-12T12:58:43.680Z,12.38
2023-02-12T13:01:19.471Z,12.32
2023-02-12T13:04:13.794Z,12.28
2023-02-12T13:06:40.301Z,12.27
2023-02-12T13:09:15.636Z,12.27
2023-02-12T13:11:57.381Z,12.25
2023-02-12T13:14:35.941Z,12.20
2023-02-12T13:17:12.871Z,12.19
2023-02-12T13:20:08.670Z,12.20
2023-02-12T13:22:53.136Z,12.20
2023-02-12T13:25:30.928Z,12.21
2023-02-12T13:27:59.750Z,12.22
2023-02-12T13:30:34.037Z,12.23
2023-02-12T13:33:18.476Z,12.25
2023-02-12T13:35:46.759Z,12.24
2023-02-12T13:38:24.918Z,12.25
2023-02-12T13:40:55.233Z,12.23
2023-02-12T16:24:43.426Z,11.26
2023-02-12T16:27:21.606Z,11.24
2023-02-12T16:29:50.715Z,11.22
2023-02-12T16:32:42.119Z,11.19
2023-02-12T16:35:11.739Z,11.17
2023-02-12T16:37:38.406Z,11.14
2023-02-12T16:40:14.079Z,11.14
2023-02-12T16:42:46.392Z,11.12
2023-02-12T16:45:34.228Z,11.10
2023-02-12T16:48:15.621Z,11.03
2023-02-12T16:50:48.340Z,10.91
2023-02-12T16:53:27.965Z,10.78
2023-02-12T16:55:55.007Z,10.77
2023-02-12T16:58:21.914Z,10.81
2023-02-12T17:00:49.169Z,10.86
2023-02-12T17:03:16.780Z,10.89
2023-02-12T17:05:45.234Z,10.92
2023-02-12T17:08:22.839Z,10.94
2023-02-12T17:10:49.914Z,10.93
2023-02-12T17:13:17.178Z,10.94
2023-02-12T17:15:55.557Z,10.95
2023-02-12T17:18:23.084Z,10.94
2023-02-12T17:20:55.014Z,10.91
2023-02-12T17:23:22.167Z,10.82
2023-02-12T17:25:48.714Z,10.76
2023-02-12T17:28:15.678Z,10.66
2023-02-12T17:30:42.354Z,10.58
2023-02-12T17:33:09.000Z,10.50
2023-02-12T17:35:38.061Z,10.42
2023-02-12T17:38:05.154Z,10.33
2023-02-12T17:40:31.711Z,10.26
2023-02-12T17:42:58.909Z,10.21
2023-02-12T17:45:25.529Z,10.18
2023-02-12T17:47:52.181Z,10.15
2023-02-12T17:50:18.811Z,10.14
2023-02-12T17:52:45.556Z,10.12
2023-02-12T17:55:13.832Z,10.09
2023-02-12T17:57:40.499Z,10.04
2023-02-12T18:00:08.886Z,9.99
2023-02-12T18:02:35.872Z,9.94
2023-02-12T18:05:02.522Z,9.90
2023-02-12T18:07:29.129Z,9.83
2023-02-12T18:09:55.957Z,9.77
2023-02-12T18:12:22.515Z,9.69
2023-02-12T18:14:49.303Z,9.62
2023-02-12T18:17:16.082Z,9.56
2023-02-12T18:19:42.615Z,9.52
2023-02-12T18:22:09.198Z,9.50
2023-02-12T18:24:35.897Z,9.45
2023-02-12T18:27:02.563Z,9.38
2023-02-12T18:29:29.178Z,9.36
2023-02-12T18:31:55.793Z,9.30
2023-02-12T18:34:22.382Z,9.24
2023-02-12T18:36:48.983Z,9.18
2023-02-12T18:39:15.498Z,9.14
2023-02-12T18:41:42.054Z,9.09
2023-02-12T18:44:08.622Z,9.06
2023-02-12T18:46:35.163Z,9.02
2023-02-12T18:49:02.044Z,8.97
2023-02-12T18:51:30.842Z,8.94
2023-02-12T18:54:02.851Z,8.90
2023-02-12T18:56:29.758Z,8.86
2023-02-12T18:58:58.015Z,8.84
2023-02-12T19:01:25.328Z,8.79
2023-02-12T19:03:58.797Z,8.76
2023-02-12T19:06:25.558Z,8.73
2023-02-12T19:08:56.648Z,8.68
2023-02-12T19:11:23.621Z,8.64
2023-02-12T19:13:50.558Z,8.62
2023-02-12T19:16:19.402Z,8.59
2023-02-12T19:18:49.057Z,8.54
2023-02-12T19:21:18.962Z,8.48
2023-02-12T19:23:45.617Z,8.41
2023-02-12T19:26:15.273Z,8.36
2023-02-12T19:28:43.025Z,8.32
2023-02-12T19:31:17.655Z,8.27
2023-02-12T19:33:45.228Z,8.16
2023-02-12T19:36:14.106Z,8.03
2023-02-12T19:38:41.136Z,7.89
2023-02-12T19:41:10.141Z,7.79
2023-02-12T19:43:37.172Z,7.70
2023-02-12T19:46:06.359Z,7.67
2023-02-12T19:48:33.022Z,7.66
2023-02-12T19:50:59.739Z,7.67
2023-02-12T19:53:26.599Z,7.71
2023-02-12T19:55:53.239Z,7.72
2023-02-12T19:58:19.953Z,7.71
2023-02-12T20:00:46.872Z,7.68
2023-02-12T20:03:13.905Z,7.65
2023-02-12T20:05:46.597Z,7.62
2023-02-12T20:08:13.693Z,7.60
2023-02-12T20:10:41.074Z,7.58
2023-02-12T20:13:07.971Z,7.54
2023-02-12T20:15:36.829Z,7.50
2023-02-12T20:18:07.681Z,7.47
2023-02-12T20:20:34.984Z,7.44
2023-02-12T20:23:01.703Z,7.42
2023-02-12T20:25:28.679Z,7.40
2023-02-12T20:27:55.278Z,7.37
2023-02-12T20:30:22.070Z,7.33
2023-02-12T20:32:56.167Z,7.29
2023-02-12T20:35:22.851Z,7.25
2023-02-12T20:37:49.374Z,7.23
2023-02-12T20:40:16.130Z,7.21
2023-02-12T20:42:42.682Z,7.19
2023-02-12T20:45:09.371Z,7.17
2023-02-12T20:47:35.960Z,7.16
2023-02-12T20:50:02.545Z,7.18
2023-02-12T20:52:29.422Z,7.19
2023-02-12T20:54:55.975Z,7.18
2023-02-12T20:57:22.715Z,7.16
2023-02-12T20:59:50.089Z,7.15
2023-02-12T21:02:18.486Z,7.13
2023-02-12T21:04:45.150Z,7.10
2023-02-12T21:07:11.787Z,7.09
2023-02-12T21:09:38.390Z,7.08
2023-02-12T21:12:05.113Z,7.08
2023-02-12T21:14:31.833Z,7.07
2023-02-12T21:16:58.450Z,7.07
2023-02-12T21:19:25.640Z,7.07
2023-02-12T21:21:52.904Z,7.08
2023-02-12T21:24:22.825Z,7.09
2023-02-12T21:26:50.477Z,7.08
2023-02-12T21:29:17.380Z,7.08
2023-02-12T21:31:46.023Z,7.05
2023-02-12T21:34:18.305Z,7.05
2023-02-12T21:36:46.326Z,7.04
2023-02-12T21:39:24.544Z,7.03
2023-02-12T21:42:00.213Z,7.01
2023-02-12T21:44:27.204Z,7.02
2023-02-12T21:46:54.428Z,7.03
2023-02-12T21:49:28.414Z,7.04
2023-02-12T21:52:02.167Z,7.00
2023-02-12T21:54:30.035Z,6.99
2023-02-12T21:56:57.025Z,6.99
2023-02-12T21:59:24.966Z,6.98
2023-02-12T22:01:53.756Z,6.97
2023-02-12T22:04:20.696Z,6.95
2023-02-12T22:06:50.417Z,6.94
2023-02-12T22:09:18.941Z,6.92
2023-02-12T22:11:45.641Z,6.90
2023-02-12T22:14:14.596Z,6.91
2023-02-12T22:16:41.602Z,6.98
2023-02-12T22:19:08.274Z,7.05
2023-02-12T22:21:36.974Z,7.09
2023-02-12T22:24:05.441Z,7.12
2023-02-12T22:26:32.869Z,7.15
2023-02-12T22:29:02.515Z,7.16
2023-02-12T22:31:31.726Z,7.16
2023-02-12T22:34:01.857Z,7.20
2023-02-12T22:36:29.473Z,7.20
2023-02-12T22:38:59.516Z,7.19
2023-02-12T22:41:27.162Z,7.17
2023-02-12T22:43:54.337Z,7.17
2023-02-12T22:46:21.294Z,7.15
2023-02-12T22:48:47.911Z,7.14
2023-02-12T22:51:22.459Z,7.11
2023-02-12T22:53:49.061Z,7.08
2023-02-12T22:56:16.285Z,7.05
2023-02-12T22:58:43.156Z,7.01
2023-02-12T23:01:15.096Z,6.97
2023-02-12T23:03:42.180Z,6.93
2023-02-12T23:06:12.091Z,6.90
2023-02-12T23:08:39.113Z,6.89
2023-02-12T23:11:07.917Z,6.89
2023-02-12T23:13:35.885Z,6.91
2023-02-12T23:16:02.995Z,6.94
2023-02-12T23:18:29.679Z,6.96
2023-02-12T23:20:56.503Z,6.98
2023-02-12T23:23:23.304Z,6.99
2023-02-12T23:25:49.899Z,6.98
2023-02-12T23:28:16.510Z,6.92
2023-02-12T23:30:43.260Z,6.88
2023-02-12T23:33:09.953Z,6.85
2023-02-12T23:35:36.524Z,6.85
2023-02-12T23:38:04.400Z,6.86
2023-02-12T23:40:32.142Z,6.89
2023-02-12T23:42:58.840Z,6.95
2023-02-12T23:45:25.630Z,6.98
2023-02-12T23:47:52.170Z,7.03
2023-02-12T23:50:18.864Z,7.05
2023-02-12T23:52:45.386Z,7.05
2023-02-12T23:55:11.957Z,7.04
2023-02-12T23:57:38.595Z,7.04
